Time;durP1;ratioP1;P1;durP2;ratioP2;P2;SDS_P1;SDS_P2;PMS_P1;PMS_P2;Temp;Humidity;BMP_temperature;BMP_pressure;BME280_temperature;BME280_humidity;BME280_pressure;Samples;Min_cycle;Max_cycle;Signal;HPM_P1;HPM_P2
2022/12/27 00:00:12;;;;;;;;;;;4.90;99.90;;;;;;5063768;28;19980;-72
2022/12/27 00:02:39;;;;;;;;;;;4.90;99.90;;;;;;5063513;28;19920;-72
2022/12/27 00:05:11;;;;;;;;;;;4.90;99.90;;;;;;5063504;28;19989;-72
2022/12/27 00:07:39;;;;;;;;;;;4.80;99.90;;;;;;5062466;28;19921;-72
2022/12/27 00:10:06;;;;;;;;;;;4.80;99.90;;;;;;5063387;28;20157;-72
2022/12/27 00:12:33;;;;;;;;;;;4.80;99.90;;;;;;5063228;28;19989;-71
2022/12/27 00:15:00;;;;;;;;;;;4.70;99.90;;;;;;5063130;28;19929;-72
2022/12/27 00:17:29;;;;;;;;;;;4.80;99.90;;;;;;5061056;28;19963;-72
2022/12/27 00:19:55;;;;;;;;;;;4.70;99.90;;;;;;5063452;28;19956;-72
2022/12/27 00:22:23;;;;;;;;;;;4.70;99.90;;;;;;5063380;28;19960;-72
2022/12/27 00:24:50;;;;;;;;;;;4.70;99.90;;;;;;5063033;28;19927;-72
2022/12/27 00:27:16;;;;;;;;;;;4.70;99.90;;;;;;5062811;28;19921;-72
2022/12/27 00:29:43;;;;;;;;;;;4.70;99.90;;;;;;5063155;28;19932;-72
2022/12/27 00:32:10;;;;;;;;;;;4.70;99.90;;;;;;5063427;28;19952;-72
2022/12/27 00:34:36;;;;;;;;;;;4.70;99.90;;;;;;5063010;28;20017;-72
2022/12/27 00:37:03;;;;;;;;;;;4.70;99.90;;;;;;5081057;22;19921;-69
2022/12/27 00:39:31;;;;;;;;;;;4.70;99.90;;;;;;5043152;28;19964;-70
2022/12/27 00:41:58;;;;;;;;;;;4.70;99.90;;;;;;5043410;28;19988;-70
2022/12/27 00:44:24;;;;;;;;;;;4.60;99.90;;;;;;5043204;28;19964;-69
2022/12/27 00:46:51;;;;;;;;;;;4.60;99.90;;;;;;5042439;28;19949;-70
2022/12/27 00:49:17;;;;;;;;;;;4.60;99.90;;;;;;5047051;28;20219;-69
2022/12/27 00:51:44;;;;;;;;;;;4.50;99.90;;;;;;5044331;28;19952;-70
2022/12/27 00:54:11;;;;;;;;;;;4.50;99.90;;;;;;5046962;28;19928;-69
2022/12/27 00:56:39;;;;;;;;;;;4.40;99.90;;;;;;5046292;28;19928;-69
2022/12/27 00:59:05;;;;;;;;;;;4.30;99.90;;;;;;5047003;28;20188;-70
2022/12/27 01:01:33;;;;;;;;;;;4.20;99.90;;;;;;5046679;28;19959;-70
2022/12/27 01:04:00;;;;;;;;;;;4.20;99.90;;;;;;5046939;28;20120;-70
2022/12/27 01:06:28;;;;;;;;;;;4.20;99.90;;;;;;5045794;28;19988;-69
2022/12/27 01:08:55;;;;;;;;;;;4.20;99.90;;;;;;5046959;28;19921;-70
2022/12/27 01:11:22;;;;;;;;;;;4.10;99.90;;;;;;5046864;28;19921;-69
2022/12/27 01:13:50;;;;;;;;;;;4.00;99.90;;;;;;5046800;28;19956;-69
2022/12/27 01:16:17;;;;;;;;;;;4.00;99.90;;;;;;5046154;28;19931;-70
2022/12/27 01:18:44;;;;;;;;;;;4.00;99.90;;;;;;5046349;28;19989;-69
2022/12/27 01:21:12;;;;;;;;;;;3.90;99.90;;;;;;5046703;28;19921;-69
2022/12/27 01:23:39;;;;;;;;;;;3.90;99.90;;;;;;5046602;28;20115;-69
2022/12/27 01:26:07;;;;;;;;;;;3.90;99.90;;;;;;5045884;28;19980;-73
2022/12/27 01:28:34;;;;;;;;;;;3.80;99.90;;;;;;5046292;28;19921;-69
2022/12/27 01:31:05;;;;;;;;;;;3.80;99.90;;;;;;5046220;28;19960;-69
2022/12/27 01:33:32;;;;;;;;;;;3.70;99.90;;;;;;5046541;28;19984;-69
2022/12/27 01:36:06;;;;;;;;;;;3.80;99.90;;;;;;5045552;28;19928;-72
2022/12/27 01:38:33;;;;;;;;;;;3.70;99.90;;;;;;5045344;28;20162;-70
2022/12/27 01:42:50;;;;;;;;;;;3.60;99.90;;;;;;5045273;28;19983;-69
2022/12/27 01:43:45;;;;;;;;;;;3.60;99.90;;;;;;5044738;28;19927;-70
2022/12/27 01:46:13;;;;;;;;;;;3.50;99.90;;;;;;5044408;28;19917;-69
2022/12/27 01:48:40;;;;;;;;;;;3.50;99.90;;;;;;5044781;28;20280;-69
2022/12/27 01:51:08;;;;;;;;;;;3.50;99.90;;;;;;5044913;28;19982;-69
2022/12/27 01:53:37;;;;;;;;;;;3.40;99.90;;;;;;5044676;28;19921;-69
2022/12/27 01:56:04;;;;;;;;;;;3.40;99.90;;;;;;5044129;28;20247;-69
2022/12/27 01:58:34;;;;;;;;;;;3.40;99.90;;;;;;5044936;28;19921;-69
2022/12/27 02:01:01;;;;;;;;;;;3.40;99.90;;;;;;5044943;28;19984;-69
2022/12/27 02:03:30;;;;;;;;;;;3.40;99.90;;;;;;5044785;28;19984;-69
2022/12/27 02:05:58;;;;;;;;;;;3.30;99.90;;;;;;5044072;28;19988;-69
2022/12/27 02:08:29;;;;;;;;;;;3.40;99.90;;;;;;5044613;28;19921;-70
2022/12/27 02:10:57;;;;;;;;;;;3.40;99.90;;;;;;5044727;28;19943;-70
2022/12/27 02:13:23;;;;;;;;;;;3.40;99.90;;;;;;5044864;28;20112;-69
2022/12/27 02:15:50;;;;;;;;;;;3.40;99.90;;;;;;5043933;28;19921;-70
2022/12/27 02:18:17;;;;;;;;;;;3.40;99.90;;;;;;5044439;28;19963;-69
2022/12/27 02:20:55;;;;;;;;;;;3.40;99.90;;;;;;5044611;28;19988;-69
2022/12/27 02:26:32;;;;;;;;;;;3.40;99.90;;;;;;5043571;28;19988;-70
2022/12/27 02:29:05;;;;;;;;;;;3.40;99.90;;;;;;5044162;28;19980;-69
2022/12/27 02:31:35;;;;;;;;;;;3.40;99.90;;;;;;5044053;28;19927;-69
2022/12/27 02:34:04;;;;;;;;;;;3.30;99.90;;;;;;5044515;28;19928;-69
2022/12/27 02:36:33;;;;;;;;;;;3.30;99.90;;;;;;4981134;28;1793014;-70
2022/12/27 02:39:01;;;;;;;;;;;3.20;99.90;;;;;;5045376;28;19921;-69
2022/12/27 02:55:29;;;;;;;;;;;3.00;99.90;;;;;;5044749;28;19927;-69
2022/12/27 02:58:03;;;;;;;;;;;3.00;99.90;;;;;;5044174;28;19929;-70
2022/12/27 03:03:28;;;;;;;;;;;2.90;99.90;;;;;;5044676;28;19928;-70
2022/12/27 03:09:00;;;;;;;;;;;2.80;99.90;;;;;;5044523;28;19963;-69
2022/12/27 03:17:06;;;;;;;;;;;2.70;99.90;;;;;;5043622;28;19924;-71
2022/12/27 03:33:11;;;;;;;;;;;2.60;99.90;;;;;;5043376;28;19928;-72
2022/12/27 03:33:23;;;;;;;;;;;2.60;99.90;;;;;;5044169;28;19963;-70
2022/12/27 03:38:35;;;;;;;;;;;2.60;99.90;;;;;;5043702;28;19917;-71
2022/12/27 03:43:49;;;;;;;;;;;2.60;99.90;;;;;;5043861;28;19967;-69
2022/12/27 03:46:37;;;;;;;;;;;2.60;99.90;;;;;;5043397;28;19928;-69
2022/12/27 03:49:11;;;;;;;;;;;2.60;99.90;;;;;;5044024;28;19924;-70
2022/12/27 03:51:39;;;;;;;;;;;2.60;99.90;;;;;;5044015;28;19921;-69
2022/12/27 03:54:08;;;;;;;;;;;2.60;99.90;;;;;;5043915;28;19984;-70
2022/12/27 03:56:36;;;;;;;;;;;2.60;99.90;;;;;;5043185;28;19921;-70
2022/12/27 03:59:03;;;;;;;;;;;2.60;99.90;;;;;;5043749;28;20188;-70
2022/12/27 04:01:29;;;;;;;;;;;2.60;99.90;;;;;;5043581;28;19921;-69
2022/12/27 04:03:56;;;;;;;;;;;2.60;99.90;;;;;;5043791;28;19921;-70
2022/12/27 04:06:24;;;;;;;;;;;2.60;99.90;;;;;;5042799;28;19921;-69
2022/12/27 04:36:15;;;;;;;;;;;2.30;99.90;;;;;;5046699;28;19924;-69
2022/12/27 04:38:43;;;;;;;;;;;2.40;99.90;;;;;;5047086;28;19988;-69
2022/12/27 04:55:00;;;;;;;;;;;2.40;99.90;;;;;;5046944;28;19963;-69
2022/12/27 04:57:27;;;;;;;;;;;2.40;99.90;;;;;;5046503;28;20128;-69
2022/12/27 05:02:39;;;;;;;;;;;2.30;99.90;;;;;;5046916;28;19989;-69
2022/12/27 05:05:07;;;;;;;;;;;2.30;99.90;;;;;;5046668;28;20255;-69
2022/12/27 05:15:48;;;;;;;;;;;2.30;99.90;;;;;;5046228;28;19924;-69
2022/12/27 05:18:14;;;;;;;;;;;2.30;99.90;;;;;;5046438;28;19984;-69
2022/12/27 05:20:41;;;;;;;;;;;2.20;99.90;;;;;;5046371;28;19964;-69
2022/12/27 05:25:54;;;;;;;;;;;2.20;99.90;;;;;;5045619;28;19927;-69
2022/12/27 05:28:21;;;;;;;;;;;2.20;99.90;;;;;;5046125;28;20115;-69
2022/12/27 05:30:47;;;;;;;;;;;2.20;99.90;;;;;;5046233;28;20012;-69
2022/12/27 05:33:14;;;;;;;;;;;2.20;99.90;;;;;;5046159;28;20151;-69
2022/12/27 05:35:40;;;;;;;;;;;2.10;99.90;;;;;;5045826;28;20279;-69
2022/12/27 05:38:07;;;;;;;;;;;2.10;99.90;;;;;;5045910;28;20000;-69
2022/12/27 05:40:34;;;;;;;;;;;2.10;99.90;;;;;;5046358;28;19921;-69
2022/12/27 05:43:03;;;;;;;;;;;2.10;99.90;;;;;;5046417;28;19929;-69
2022/12/27 05:45:30;;;;;;;;;;;2.10;99.90;;;;;;5044948;28;20000;-69
2022/12/27 05:47:58;;;;;;;;;;;2.10;99.90;;;;;;5045650;28;19988;-69
2022/12/27 05:50:24;;;;;;;;;;;2.10;99.90;;;;;;5046195;28;19987;-70
2022/12/27 05:52:51;;;;;;;;;;;2.10;99.90;;;;;;5046252;28;20153;-69
2022/12/27 05:55:18;;;;;;;;;;;2.00;99.90;;;;;;5045686;28;19959;-69
2022/12/27 05:57:44;;;;;;;;;;;2.00;99.90;;;;;;5045118;28;19956;-70
2022/12/27 06:00:13;;;;;;;;;;;2.00;99.90;;;;;;5045726;28;19952;-69
2022/12/27 06:02:40;;;;;;;;;;;1.90;99.90;;;;;;5045973;28;19992;-69
2022/12/27 06:05:09;;;;;;;;;;;1.90;99.90;;;;;;5045759;28;19929;-69
2022/12/27 06:07:36;;;;;;;;;;;1.90;99.90;;;;;;5045250;28;19921;-69
2022/12/27 06:10:02;;;;;;;;;;;1.90;99.90;;;;;;5045942;28;19921;-69
2022/12/27 06:12:29;;;;;;;;;;;1.90;99.90;;;;;;5045549;28;20164;-70
2022/12/27 06:14:56;;;;;;;;;;;1.90;99.90;;;;;;5045691;28;20153;-69
2022/12/27 06:17:32;;;;;;;;;;;1.90;99.90;;;;;;5042154;28;20019;-69
2022/12/27 06:19:58;;;;;;;;;;;1.80;99.90;;;;;;5045762;28;19928;-69
2022/12/27 06:22:25;;;;;;;;;;;1.80;99.90;;;;;;5045537;28;20121;-70
2022/12/27 06:24:51;;;;;;;;;;;1.80;99.90;;;;;;5045387;28;19987;-70
2022/12/27 06:27:18;;;;;;;;;;;1.80;99.90;;;;;;5044661;28;19959;-70
2022/12/27 06:29:45;;;;;;;;;;;1.70;99.90;;;;;;5044847;28;19987;-69
2022/12/27 06:32:12;;;;;;;;;;;1.70;99.90;;;;;;5045105;28;20220;-70
2022/12/27 06:34:40;;;;;;;;;;;1.70;99.90;;;;;;5045119;28;20213;-69
2022/12/27 06:37:06;;;;;;;;;;;1.70;99.90;;;;;;5044418;28;19921;-69
2022/12/27 06:39:33;;;;;;;;;;;1.80;99.90;;;;;;5045354;28;19948;-69
2022/12/27 06:41:59;;;;;;;;;;;1.70;99.90;;;;;;5044961;28;19988;-70
2022/12/27 06:44:26;;;;;;;;;;;1.80;99.90;;;;;;5044857;28;19952;-69
2022/12/27 06:46:53;;;;;;;;;;;1.70;99.90;;;;;;5043838;28;19988;-70
2022/12/27 06:49:19;;;;;;;;;;;1.80;99.90;;;;;;5045210;28;19928;-69
2022/12/27 06:51:48;;;;;;;;;;;1.80;99.90;;;;;;5044675;28;20228;-69
2022/12/27 06:54:17;;;;;;;;;;;1.90;99.90;;;;;;5044158;28;20115;-69
2022/12/27 06:56:44;;;;;;;;;;;1.90;99.90;;;;;;5044234;28;19921;-69
2022/12/27 06:59:10;;;;;;;;;;;2.00;99.90;;;;;;5044898;28;19921;-69
2022/12/27 07:01:37;;;;;;;;;;;2.00;99.90;;;;;;5044851;28;19988;-69
2022/12/27 07:04:04;;;;;;;;;;;2.00;99.90;;;;;;5044849;28;20005;-69
2022/12/27 07:06:31;;;;;;;;;;;2.00;99.90;;;;;;5043620;28;19921;-69
2022/12/27 07:09:00;;;;;;;;;;;2.10;99.90;;;;;;5044664;28;19993;-69
2022/12/27 07:11:27;;;;;;;;;;;2.00;99.90;;;;;;5044846;28;19921;-70
2022/12/27 07:13:54;;;;;;;;;;;2.00;99.90;;;;;;5044316;28;20263;-69
2022/12/27 07:16:22;;;;;;;;;;;2.10;99.90;;;;;;5044081;28;19929;-70
2022/12/27 07:18:49;;;;;;;;;;;2.10;99.90;;;;;;5044721;28;19992;-70
2022/12/27 07:21:16;;;;;;;;;;;2.10;99.90;;;;;;5044501;28;19921;-69
2022/12/27 07:23:43;;;;;;;;;;;2.10;99.90;;;;;;5044550;28;19988;-69
2022/12/27 07:26:12;;;;;;;;;;;2.10;99.90;;;;;;5043375;28;20204;-69
2022/12/27 07:28:39;;;;;;;;;;;2.20;99.90;;;;;;5043961;28;19927;-70
2022/12/27 07:31:06;;;;;;;;;;;2.20;99.90;;;;;;5044286;28;19971;-69
2022/12/27 07:33:33;;;;;;;;;;;2.20;99.90;;;;;;5043962;28;19928;-70
2022/12/27 07:36:00;;;;;;;;;;;2.20;99.90;;;;;;5043621;28;19928;-70
2022/12/27 07:38:27;;;;;;;;;;;2.20;99.90;;;;;;5043741;28;19921;-69
2022/12/27 07:40:53;;;;;;;;;;;2.30;99.90;;;;;;5044242;28;19988;-69
2022/12/27 07:43:21;;;;;;;;;;;2.30;99.90;;;;;;5044185;28;19921;-69
2022/12/27 07:45:48;;;;;;;;;;;2.30;99.90;;;;;;5043577;28;20093;-70
2022/12/27 07:48:15;;;;;;;;;;;2.30;99.90;;;;;;5043605;28;19988;-69
2022/12/27 07:50:41;;;;;;;;;;;2.40;99.90;;;;;;5044013;28;19948;-69
2022/12/27 07:53:09;;;;;;;;;;;2.40;99.90;;;;;;5042179;28;20284;-69
2022/12/27 07:55:35;;;;;;;;;;;2.40;99.90;;;;;;5043800;28;19988;-70
2022/12/27 07:58:02;;;;;;;;;;;2.30;99.90;;;;;;5042899;28;20268;-70
2022/12/27 08:00:30;;;;;;;;;;;2.30;99.90;;;;;;5043808;28;19959;-69
2022/12/27 08:02:57;;;;;;;;;;;2.40;99.90;;;;;;5043764;28;19928;-69
2022/12/27 08:05:23;;;;;;;;;;;2.30;99.90;;;;;;5043625;28;20039;-69
2022/12/27 08:07:50;;;;;;;;;;;2.30;99.90;;;;;;5042847;28;19959;-69
2022/12/27 08:10:17;;;;;;;;;;;2.40;99.90;;;;;;5043756;28;20139;-69
2022/12/27 08:12:43;;;;;;;;;;;2.40;99.90;;;;;;5043774;28;20001;-69
2022/12/27 08:15:11;;;;;;;;;;;2.40;99.90;;;;;;5043494;28;19921;-69
2022/12/27 08:17:39;;;;;;;;;;;2.50;99.90;;;;;;5043078;28;20017;-69
2022/12/27 08:20:06;;;;;;;;;;;2.50;99.90;;;;;;5043682;28;19996;-69
2022/12/27 08:22:32;;;;;;;;;;;2.50;99.90;;;;;;5043405;28;20192;-70
2022/12/27 08:24:59;;;;;;;;;;;2.50;99.90;;;;;;5040697;28;19961;-69
2022/12/27 08:27:25;;;;;;;;;;;2.60;99.90;;;;;;5023291;28;19922;-69
2022/12/27 08:29:52;;;;;;;;;;;2.60;99.90;;;;;;5041061;28;19952;-69
2022/12/27 08:32:19;;;;;;;;;;;2.60;99.90;;;;;;5043560;28;19971;-70
2022/12/27 08:34:47;;;;;;;;;;;2.70;99.90;;;;;;5043246;28;19996;-69
2022/12/27 08:37:14;;;;;;;;;;;2.70;99.90;;;;;;5042663;28;19932;-70
2022/12/27 08:39:41;;;;;;;;;;;2.80;99.90;;;;;;5043633;28;19955;-70
2022/12/27 08:42:09;;;;;;;;;;;2.80;99.90;;;;;;5043458;28;19987;-70
2022/12/27 08:44:35;;;;;;;;;;;2.80;99.90;;;;;;5043601;28;19927;-72
2022/12/27 08:47:03;;;;;;;;;;;2.80;99.90;;;;;;5042427;28;19991;-69
2022/12/27 08:49:29;;;;;;;;;;;2.80;99.90;;;;;;5043136;28;19944;-70
2022/12/27 08:51:57;;;;;;;;;;;2.90;99.90;;;;;;5043141;28;19928;-70
2022/12/27 08:54:25;;;;;;;;;;;2.90;99.90;;;;;;5042597;28;19988;-69
2022/12/27 08:56:52;;;;;;;;;;;2.90;99.90;;;;;;5042329;28;19921;-69
2022/12/27 08:59:18;;;;;;;;;;;3.00;99.90;;;;;;5043123;28;20263;-69
2022/12/27 09:01:45;;;;;;;;;;;3.00;99.90;;;;;;5043325;28;19949;-69
2022/12/27 09:04:11;;;;;;;;;;;3.00;99.90;;;;;;5043331;28;19952;-69
2022/12/27 09:06:39;;;;;;;;;;;3.10;99.90;;;;;;5042513;28;19996;-69
2022/12/27 09:09:07;;;;;;;;;;;3.10;99.90;;;;;;5044836;28;20231;-70
2022/12/27 09:11:34;;;;;;;;;;;3.20;99.90;;;;;;5046851;28;19921;-70
2022/12/27 09:14:01;;;;;;;;;;;3.20;99.90;;;;;;5046635;28;20200;-69
2022/12/27 09:16:29;;;;;;;;;;;3.30;99.90;;;;;;5045782;28;19920;-70
2022/12/27 09:18:56;;;;;;;;;;;3.30;99.90;;;;;;5046517;28;19921;-70
2022/12/27 09:21:24;;;;;;;;;;;3.40;99.90;;;;;;5046699;28;19921;-69
2022/12/27 09:23:51;;;;;;;;;;;3.40;99.90;;;;;;5046704;28;19988;-69
2022/12/27 09:26:20;;;;;;;;;;;3.40;99.90;;;;;;5045661;28;19960;-69
2022/12/27 09:28:47;;;;;;;;;;;3.40;99.90;;;;;;5046383;28;19984;-69
2022/12/27 09:31:14;;;;;;;;;;;3.50;99.90;;;;;;5046567;28;20153;-69
2022/12/27 09:33:41;;;;;;;;;;;3.50;99.90;;;;;;5046504;28;19988;-69
2022/12/27 09:36:08;;;;;;;;;;;3.50;99.90;;;;;;5045628;28;19921;-68
2022/12/27 09:38:35;;;;;;;;;;;3.60;99.90;;;;;;5045990;28;19921;-69
2022/12/27 09:41:04;;;;;;;;;;;3.60;99.90;;;;;;5045880;28;19989;-69
2022/12/27 09:43:38;;;;;;;;;;;3.60;99.90;;;;;;5045707;28;19959;-69
2022/12/27 09:46:05;;;;;;;;;;;3.70;99.90;;;;;;5045473;28;19951;-70
2022/12/27 09:48:34;;;;;;;;;;;3.80;99.90;;;;;;5045897;28;19993;-69
2022/12/27 09:51:03;;;;;;;;;;;3.80;99.90;;;;;;5045993;28;19952;-70
2022/12/27 09:53:36;;;;;;;;;;;3.90;99.90;;;;;;5046063;28;19988;-69
2022/12/27 09:56:04;;;;;;;;;;;3.90;99.90;;;;;;5045585;28;19965;-69
2022/12/27 09:58:37;;;;;;;;;;;4.00;99.90;;;;;;5045811;28;19921;-69
2022/12/27 10:01:12;;;;;;;;;;;4.00;99.90;;;;;;5045884;28;19921;-70
2022/12/27 10:03:45;;;;;;;;;;;4.10;99.90;;;;;;5044194;28;19921;-69
2022/12/27 10:06:20;;;;;;;;;;;4.20;99.90;;;;;;5045273;28;19963;-69
2022/12/27 10:08:49;;;;;;;;;;;4.20;99.90;;;;;;5045790;28;19984;-70
2022/12/27 10:14:05;;;;;;;;;;;4.40;99.90;;;;;;5044979;28;19917;-70
2022/12/27 10:16:36;;;;;;;;;;;4.40;99.90;;;;;;5045061;28;19984;-70
2022/12/27 10:19:17;;;;;;;;;;;4.50;99.90;;;;;;5045798;28;19984;-70
2022/12/27 10:21:49;;;;;;;;;;;4.50;99.90;;;;;;5044830;28;19986;-69
2022/12/27 10:24:20;;;;;;;;;;;4.50;99.90;;;;;;5044572;28;19988;-70
2022/12/27 10:26:47;;;;;;;;;;;4.50;99.90;;;;;;5044607;28;20112;-71
2022/12/27 10:29:17;;;;;;;;;;;4.60;99.90;;;;;;5045333;28;19964;-69
2022/12/27 10:31:43;;;;;;;;;;;4.60;99.90;;;;;;5045253;28;19992;-70
2022/12/27 10:34:13;;;;;;;;;;;4.70;99.90;;;;;;5045321;28;19992;-71
2022/12/27 10:36:41;;;;;;;;;;;4.80;99.90;;;;;;5044337;28;20193;-69
2022/12/27 10:39:15;;;;;;;;;;;4.80;99.90;;;;;;5045193;28;19989;-69
2022/12/27 10:41:48;;;;;;;;;;;4.90;99.90;;;;;;5044737;28;19929;-69
2022/12/27 10:44:16;;;;;;;;;;;5.00;99.90;;;;;;5045162;28;19967;-69
2022/12/27 10:46:48;;;;;;;;;;;5.00;99.90;;;;;;5043932;28;19921;-69
2022/12/27 10:49:21;;;;;;;;;;;5.10;99.90;;;;;;5044992;28;19921;-69
2022/12/27 10:51:49;;;;;;;;;;;5.10;99.90;;;;;;5044942;28;19960;-69
2022/12/27 10:54:19;;;;;;;;;;;5.20;99.90;;;;;;5044716;28;20111;-72
2022/12/27 10:56:46;;;;;;;;;;;5.30;99.90;;;;;;5043669;28;19967;-69
2022/12/27 10:59:15;;;;;;;;;;;5.40;99.90;;;;;;5044810;28;19921;-70
2022/12/27 11:01:46;;;;;;;;;;;5.40;99.90;;;;;;5044198;28;20219;-69
2022/12/27 11:04:14;;;;;;;;;;;5.50;99.90;;;;;;5042657;28;19949;-69
2022/12/27 11:06:42;;;;;;;;;;;5.60;99.90;;;;;;5043312;28;19997;-69
2022/12/27 11:09:32;;;;;;;;;;;5.70;99.90;;;;;;5044182;28;19952;-69
2022/12/27 11:12:13;;;;;;;;;;;5.70;99.90;;;;;;5034146;28;20227;-69
2022/12/27 11:14:39;;;;;;;;;;;5.80;99.90;;;;;;5044927;28;20168;-69
2022/12/27 11:17:09;;;;;;;;;;;5.90;99.90;;;;;;5043326;28;19991;-69
2022/12/27 11:19:37;;;;;;;;;;;6.00;99.90;;;;;;5044154;28;19921;-69
2022/12/27 11:22:05;;;;;;;;;;;6.10;99.90;;;;;;5044237;28;19928;-69
2022/12/27 11:24:31;;;;;;;;;;;6.10;99.90;;;;;;5044315;28;19921;-70
2022/12/27 11:26:59;;;;;;;;;;;6.10;99.90;;;;;;5043042;28;19964;-70
2022/12/27 11:29:32;;;;;;;;;;;6.10;99.90;;;;;;5043116;28;19984;-69
2022/12/27 11:32:05;;;;;;;;;;;6.10;99.90;;;;;;5043790;28;19928;-69
2022/12/27 11:34:33;;;;;;;;;;;6.20;99.90;;;;;;5044180;28;19921;-69
2022/12/27 11:37:03;;;;;;;;;;;6.20;99.90;;;;;;5042762;28;19963;-70
2022/12/27 11:39:43;;;;;;;;;;;6.20;99.90;;;;;;5043959;28;19921;-69
2022/12/27 11:42:15;;;;;;;;;;;6.20;99.90;;;;;;5044047;28;20286;-69
2022/12/27 11:44:44;;;;;;;;;;;6.30;99.90;;;;;;5043624;28;19989;-69
2022/12/27 11:47:12;;;;;;;;;;;6.20;99.90;;;;;;5042669;28;19988;-70
2022/12/27 11:49:46;;;;;;;;;;;6.30;99.90;;;;;;5043788;28;19959;-69
2022/12/27 11:52:39;;;;;;;;;;;6.30;99.90;;;;;;5043572;28;19921;-71
2022/12/27 11:55:31;;;;;;;;;;;6.50;99.90;;;;;;5025164;28;19921;-69
2022/12/27 11:58:28;;;;;;;;;;;6.50;99.90;;;;;;5042373;28;20093;-69
2022/12/27 12:00:57;;;;;;;;;;;6.60;99.90;;;;;;5002127;28;20212;-69
2022/12/27 12:03:35;;;;;;;;;;;6.70;99.90;;;;;;5034199;28;19988;-69
2022/12/27 12:06:15;;;;;;;;;;;6.70;99.90;;;;;;5042970;28;19936;-69
2022/12/27 12:09:00;;;;;;;;;;;6.70;99.90;;;;;;5042482;28;19988;-69
2022/12/27 12:11:33;;;;;;;;;;;6.60;99.90;;;;;;5043624;28;20124;-69
2022/12/27 12:14:09;;;;;;;;;;;6.60;99.90;;;;;;5043424;28;20263;-69
2022/12/27 12:16:53;;;;;;;;;;;6.60;99.90;;;;;;5042662;28;19921;-69
2022/12/27 12:19:27;;;;;;;;;;;6.70;99.90;;;;;;5022960;28;19980;-68
2022/12/27 12:22:05;;;;;;;;;;;6.80;99.90;;;;;;5043334;28;19921;-69
2022/12/27 12:24:42;;;;;;;;;;;6.90;99.90;;;;;;5043248;28;19921;-69
2022/12/27 12:27:36;;;;;;;;;;;6.90;99.90;;;;;;5042695;28;19972;-69
2022/12/27 12:30:15;;;;;;;;;;;6.80;99.90;;;;;;5043603;28;20000;-69
2022/12/27 12:32:55;;;;;;;;;;;6.70;99.90;;;;;;5043397;28;20076;-70
2022/12/27 12:35:25;;;;;;;;;;;6.70;99.90;;;;;;5043347;28;20261;-70
2022/12/27 12:38:06;;;;;;;;;;;6.70;99.90;;;;;;5042400;28;20192;-69
2022/12/27 12:40:46;;;;;;;;;;;6.80;99.90;;;;;;5041365;28;19988;-68
2022/12/27 12:43:22;;;;;;;;;;;6.90;99.90;;;;;;5043889;28;19987;-69
2022/12/27 12:45:59;;;;;;;;;;;7.00;99.90;;;;;;5045620;28;19988;-69
2022/12/27 12:48:44;;;;;;;;;;;7.00;99.90;;;;;;5038479;28;20011;-69
2022/12/27 12:51:24;;;;;;;;;;;7.00;99.90;;;;;;5044189;28;19984;-69
2022/12/27 12:53:55;;;;;;;;;;;6.90;99.90;;;;;;5047071;28;19921;-69
2022/12/27 12:56:42;;;;;;;;;;;6.90;99.90;;;;;;5046433;28;19921;-69
2022/12/27 12:59:24;;;;;;;;;;;6.90;99.90;;;;;;5044061;28;19929;-69
2022/12/27 13:02:01;;;;;;;;;;;6.90;99.90;;;;;;5041854;28;19988;-68
2022/12/27 13:04:51;;;;;;;;;;;7.00;99.90;;;;;;5027121;28;19957;-68
2022/12/27 13:07:30;;;;;;;;;;;6.90;99.90;;;;;;5012768;28;19972;-69
2022/12/27 13:10:17;;;;;;;;;;;7.00;99.90;;;;;;5025341;28;19936;-69
2022/12/27 13:12:50;;;;;;;;;;;7.00;99.90;;;;;;5026819;28;19927;-68
2022/12/27 13:15:28;;;;;;;;;;;6.80;99.90;;;;;;5024440;28;19929;-68
2022/12/27 13:18:00;;;;;;;;;;;6.60;99.90;;;;;;5025737;28;20223;-69
2022/12/27 13:20:42;;;;;;;;;;;6.50;99.90;;;;;;5035346;28;20341;-69
2022/12/27 13:23:13;;;;;;;;;;;6.50;99.90;;;;;;5046484;28;19988;-69
2022/12/27 13:25:44;;;;;;;;;;;6.30;99.90;;;;;;5043637;28;19984;-69
2022/12/27 13:28:23;;;;;;;;;;;6.20;99.90;;;;;;5046025;28;19921;-68
2022/12/27 13:30:55;;;;;;;;;;;6.10;99.90;;;;;;5046237;28;19927;-69
2022/12/27 13:33:26;;;;;;;;;;;6.00;99.90;;;;;;5046213;28;19988;-70
2022/12/27 13:36:09;;;;;;;;;;;5.90;99.90;;;;;;5045818;28;20303;-69
2022/12/27 13:38:51;;;;;;;;;;;5.90;99.90;;;;;;5045829;28;20264;-70
2022/12/27 13:41:23;;;;;;;;;;;5.80;99.90;;;;;;5043092;28;20270;-70
2022/12/27 13:44:17;;;;;;;;;;;5.80;99.90;;;;;;5045646;28;19975;-69
2022/12/27 13:47:03;;;;;;;;;;;5.70;99.90;;;;;;5006548;28;19921;-70
2022/12/27 13:49:47;;;;;;;;;;;5.70;99.90;;;;;;5038330;28;19989;-69
2022/12/27 13:52:20;;;;;;;;;;;5.70;99.90;;;;;;5029602;28;19980;-69
2022/12/27 13:55:01;;;;;;;;;;;5.60;99.90;;;;;;5031399;28;19984;-70
2022/12/27 13:57:48;;;;;;;;;;;5.50;99.90;;;;;;5031628;28;19984;-69
2022/12/27 14:00:17;;;;;;;;;;;5.60;99.90;;;;;;5046066;28;19927;-69
2022/12/27 14:03:17;;;;;;;;;;;5.50;99.90;;;;;;5045486;28;19933;-69
2022/12/27 14:06:14;;;;;;;;;;;5.50;99.90;;;;;;5041269;28;19988;-70
2022/12/27 14:08:50;;;;;;;;;;;5.50;99.90;;;;;;5025489;28;19922;-70
2022/12/27 14:11:21;;;;;;;;;;;5.40;99.90;;;;;;5026325;28;19964;-69
2022/12/27 14:13:48;;;;;;;;;;;5.40;99.90;;;;;;5025851;28;19928;-69
2022/12/27 14:16:35;;;;;;;;;;;5.40;99.90;;;;;;5022705;28;19927;-70
2022/12/27 14:19:11;;;;;;;;;;;5.30;99.90;;;;;;5023634;28;19964;-69
2022/12/27 14:21:54;;;;;;;;;;;5.30;99.90;;;;;;5040049;28;19929;-69
2022/12/27 14:24:27;;;;;;;;;;;5.30;99.90;;;;;;5044969;28;19921;-69
2022/12/27 14:27:06;;;;;;;;;;;5.30;99.90;;;;;;5044505;28;19992;-69
2022/12/27 14:29:57;;;;;;;;;;;5.30;99.90;;;;;;5045353;28;19988;-69
2022/12/27 14:32:35;;;;;;;;;;;5.30;99.90;;;;;;5045340;28;19988;-69
2022/12/27 14:35:12;;;;;;;;;;;5.30;99.90;;;;;;5045140;28;19921;-70
2022/12/27 14:38:04;;;;;;;;;;;5.30;99.90;;;;;;5044177;28;19976;-69
2022/12/27 14:40:42;;;;;;;;;;;5.30;99.90;;;;;;5044889;28;19921;-69
2022/12/27 14:43:27;;;;;;;;;;;5.30;99.90;;;;;;5044843;28;19988;-70
2022/12/27 14:46:14;;;;;;;;;;;5.30;99.90;;;;;;5041744;28;19927;-69
2022/12/27 14:48:55;;;;;;;;;;;5.30;99.90;;;;;;5042645;28;20279;-72
2022/12/27 14:51:41;;;;;;;;;;;5.20;99.90;;;;;;5043516;28;19952;-69
2022/12/27 14:54:28;;;;;;;;;;;5.20;99.90;;;;;;5037821;28;19929;-69
2022/12/27 14:57:01;;;;;;;;;;;5.20;99.90;;;;;;5026617;28;19984;-69
2022/12/27 14:59:32;;;;;;;;;;;5.20;99.90;;;;;;5044741;28;19980;-69
2022/12/27 15:02:03;;;;;;;;;;;5.20;99.90;;;;;;5044660;28;20213;-69
2022/12/27 15:04:37;;;;;;;;;;;5.20;99.90;;;;;;5044583;28;19928;-70
2022/12/27 15:07:19;;;;;;;;;;;5.10;99.90;;;;;;5043017;28;20004;-69
2022/12/27 15:09:57;;;;;;;;;;;5.10;99.90;;;;;;5043153;28;19984;-70
2022/12/27 15:12:28;;;;;;;;;;;5.00;99.90;;;;;;5044482;28;19981;-71
2022/12/27 15:15:02;;;;;;;;;;;5.00;99.90;;;;;;5044297;28;19921;-70
2022/12/27 15:17:39;;;;;;;;;;;5.00;99.90;;;;;;5041239;28;19921;-69
2022/12/27 15:20:12;;;;;;;;;;;5.00;99.90;;;;;;5043906;28;19921;-69
2022/12/27 15:22:48;;;;;;;;;;;5.00;99.90;;;;;;5044355;28;19925;-69
2022/12/27 15:25:20;;;;;;;;;;;4.90;99.90;;;;;;5043815;28;19921;-69
2022/12/27 15:27:52;;;;;;;;;;;4.90;99.90;;;;;;5043003;28;20179;-69
2022/12/27 15:30:22;;;;;;;;;;;4.80;99.90;;;;;;5044051;28;20061;-70
2022/12/27 15:32:54;;;;;;;;;;;4.80;99.90;;;;;;5043807;28;19921;-70
2022/12/27 15:35:40;;;;;;;;;;;4.80;99.90;;;;;;5044048;28;20013;-69
2022/12/27 15:38:12;;;;;;;;;;;4.80;99.90;;;;;;5043253;28;19984;-69
2022/12/27 15:41:03;;;;;;;;;;;4.80;99.90;;;;;;5044044;28;19984;-70
2022/12/27 15:43:39;;;;;;;;;;;4.70;99.90;;;;;;5043589;28;19980;-69
2022/12/27 15:46:17;;;;;;;;;;;4.70;99.90;;;;;;5043137;28;19929;-69
2022/12/27 15:49:06;;;;;;;;;;;4.60;99.90;;;;;;5043785;28;19979;-70
2022/12/27 15:51:34;;;;;;;;;;;4.60;99.90;;;;;;5028665;28;19988;-69
2022/12/27 15:54:15;;;;;;;;;;;4.60;99.90;;;;;;5030727;28;19965;-69
2022/12/27 15:56:55;;;;;;;;;;;4.50;99.90;;;;;;5043153;28;19985;-69
2022/12/27 15:59:35;;;;;;;;;;;4.50;99.90;;;;;;5043757;28;19921;-69
2022/12/27 16:02:20;;;;;;;;;;;4.40;99.90;;;;;;5043718;28;19928;-69
2022/12/27 16:04:49;;;;;;;;;;;4.40;99.90;;;;;;5043548;28;19921;-69
2022/12/27 16:07:38;;;;;;;;;;;4.40;99.90;;;;;;5042642;28;19921;-70
2022/12/27 16:10:28;;;;;;;;;;;4.30;99.90;;;;;;5042099;28;19929;-69
2022/12/27 16:12:58;;;;;;;;;;;4.30;99.90;;;;;;5032773;28;19988;-69
2022/12/27 16:15:41;;;;;;;;;;;4.30;99.90;;;;;;5043476;28;19927;-70
2022/12/27 16:18:29;;;;;;;;;;;4.20;99.90;;;;;;5044840;28;19988;-69
2022/12/27 16:20:57;;;;;;;;;;;4.10;99.90;;;;;;5047284;28;19921;-71
2022/12/27 16:23:25;;;;;;;;;;;4.10;99.90;;;;;;5047584;28;19927;-71
2022/12/27 16:25:59;;;;;;;;;;;4.10;99.90;;;;;;5046988;28;19960;-70
2022/12/27 16:28:29;;;;;;;;;;;4.10;99.90;;;;;;5046991;28;20001;-70
2022/12/27 16:30:56;;;;;;;;;;;4.00;99.90;;;;;;5047072;28;20267;-69
2022/12/27 16:33:29;;;;;;;;;;;4.00;99.90;;;;;;5047518;28;19927;-69
2022/12/27 16:36:03;;;;;;;;;;;4.00;99.90;;;;;;5046723;28;19979;-69
2022/12/27 16:38:32;;;;;;;;;;;3.90;99.90;;;;;;5047021;28;20165;-69